sensor_id;sensor_type;location;lat;lon;timestamp;pressure;altitude;pressure_sealevel;temperature;humidity
79150;BME280;68563;45.644;13.782;2023-04-30T00:01:53;100963.88;;;16.02;61.09
79150;BME280;68563;45.644;13.782;2023-04-30T00:04:19;100962.13;;;16.03;61.49
79150;BME280;68563;45.644;13.782;2023-04-30T00:06:44;100959.47;;;16.04;61.84
79150;BME280;68563;45.644;13.782;2023-04-30T00:09:10;100964.69;;;16.04;61.89
79150;BME280;68563;45.644;13.782;2023-04-30T00:11:36;100966.41;;;16.05;62.39
79150;BME280;68563;45.644;13.782;2023-04-30T00:14:01;100968.13;;;16.06;62.64
79150;BME280;68563;45.644;13.782;2023-04-30T00:16:26;100962.97;;;16.03;62.75
79150;BME280;68563;45.644;13.782;2023-04-30T00:18:52;100968.19;;;16.03;63.21
79150;BME280;68563;45.644;13.782;2023-04-30T00:21:17;100972.72;;;15.98;63.18
79150;BME280;68563;45.644;13.782;2023-04-30T00:23:43;100973.66;;;15.95;63.50
79150;BME280;68563;45.644;13.782;2023-04-30T00:26:08;100984.13;;;15.94;63.74
79150;BME280;68563;45.644;13.782;2023-04-30T00:28:33;100985.09;;;15.91;64.00
79150;BME280;68563;45.644;13.782;2023-04-30T00:30:59;100986.88;;;15.89;63.66
79150;BME280;68563;45.644;13.782;2023-04-30T00:33:24;100984.47;;;15.82;64.59
79150;BME280;68563;45.644;13.782;2023-04-30T00:35:50;100982.78;;;15.80;63.81
79150;BME280;68563;45.644;13.782;2023-04-30T00:38:15;100979.53;;;15.72;64.00
79150;BME280;68563;45.644;13.782;2023-04-30T00:40:42;100988.34;;;15.68;63.68
79150;BME280;68563;45.644;13.782;2023-04-30T00:43:08;100987.47;;;15.69;63.73
79150;BME280;68563;45.644;13.782;2023-04-30T00:45:33;100980.34;;;15.74;63.44
79150;BME280;68563;45.644;13.782;2023-04-30T00:47:59;100983.78;;;15.76;63.27
79150;BME280;68563;45.644;13.782;2023-04-30T00:50:24;100976.91;;;15.72;63.60
79150;BME280;68563;45.644;13.782;2023-04-30T00:52:50;100975.31;;;15.68;63.70
79150;BME280;68563;45.644;13.782;2023-04-30T00:55:16;100970.97;;;15.67;63.66
79150;BME280;68563;45.644;13.782;2023-04-30T00:57:41;100979.81;;;15.63;63.63
79150;BME280;68563;45.644;13.782;2023-04-30T01:00:07;100966.88;;;15.58;63.69
79150;BME280;68563;45.644;13.782;2023-04-30T01:02:39;100978.28;;;15.56;63.76
79150;BME280;68563;45.644;13.782;2023-04-30T01:05:05;100976.44;;;15.59;63.64
79150;BME280;68563;45.644;13.782;2023-04-30T01:07:31;100980.84;;;15.57;63.71
79150;BME280;68563;45.644;13.782;2023-04-30T01:09:57;100979.88;;;15.60;63.82
79150;BME280;68563;45.644;13.782;2023-04-30T01:20:18;100979.69;;;15.68;62.97
79150;BME280;68563;45.644;13.782;2023-04-30T01:25:41;100965.63;;;15.72;62.63
79150;BME280;68563;45.644;13.782;2023-04-30T01:28:09;100965.50;;;15.76;62.38
79150;BME280;68563;45.644;13.782;2023-04-30T01:30:37;100958.75;;;15.69;62.69
79150;BME280;68563;45.644;13.782;2023-04-30T01:33:05;100957.09;;;15.65;62.61
79150;BME280;68563;45.644;13.782;2023-04-30T01:41:09;100955.25;;;15.70;62.31
79150;BME280;68563;45.644;13.782;2023-04-30T01:46:39;100961.16;;;15.75;62.22
79150;BME280;68563;45.644;13.782;2023-04-30T01:49:14;100961.13;;;15.77;62.11
79150;BME280;68563;45.644;13.782;2023-04-30T01:51:44;100961.88;;;15.80;61.88
79150;BME280;68563;45.644;13.782;2023-04-30T01:56:53;100952.44;;;15.76;62.02
79150;BME280;68563;45.644;13.782;2023-04-30T01:59:22;100953.34;;;15.75;62.22
79150;BME280;68563;45.644;13.782;2023-04-30T02:01:48;100952.53;;;15.73;62.67
79150;BME280;68563;45.644;13.782;2023-04-30T02:04:13;100953.41;;;15.72;62.84
79150;BME280;68563;45.644;13.782;2023-04-30T02:06:39;100951.69;;;15.73;62.80
79150;BME280;68563;45.644;13.782;2023-04-30T02:09:05;100949.00;;;15.74;62.87
79150;BME280;68563;45.644;13.782;2023-04-30T02:11:31;100952.56;;;15.72;63.78
79150;BME280;68563;45.644;13.782;2023-04-30T02:13:56;100945.78;;;15.66;63.58
79150;BME280;68563;45.644;13.782;2023-04-30T02:16:22;100944.97;;;15.64;63.99
79150;BME280;68563;45.644;13.782;2023-04-30T02:18:47;100946.59;;;15.68;63.68
79150;BME280;68563;45.644;13.782;2023-04-30T02:21:13;100926.84;;;15.59;63.58
79150;BME280;68563;45.644;13.782;2023-04-30T02:23:39;100930.22;;;15.63;63.76
79150;BME280;68563;45.644;13.782;2023-04-30T02:26:04;100935.56;;;15.58;63.70
79150;BME280;68563;45.644;13.782;2023-04-30T02:28:30;100941.56;;;15.62;63.69
79150;BME280;68563;45.644;13.782;2023-04-30T02:30:55;100944.16;;;15.62;63.54
79150;BME280;68563;45.644;13.782;2023-04-30T02:33:21;100941.72;;;15.56;63.73
79150;BME280;68563;45.644;13.782;2023-04-30T02:35:46;100955.44;;;15.64;63.48
79150;BME280;68563;45.644;13.782;2023-04-30T02:38:11;100955.44;;;15.64;63.77
79150;BME280;68563;45.644;13.782;2023-04-30T02:40:37;100953.72;;;15.61;63.92
79150;BME280;68563;45.644;13.782;2023-04-30T02:43:02;100949.50;;;15.57;63.98
79150;BME280;68563;45.644;13.782;2023-04-30T02:45:30;100953.00;;;15.58;63.94
79150;BME280;68563;45.644;13.782;2023-04-30T02:47:55;100945.38;;;15.50;64.12
79150;BME280;68563;45.644;13.782;2023-04-30T02:50:21;100944.59;;;15.46;64.25
79150;BME280;68563;45.644;13.782;2023-04-30T02:52:46;100937.53;;;15.50;64.13
79150;BME280;68563;45.644;13.782;2023-04-30T02:55:12;100942.88;;;15.45;64.14
79150;BME280;68563;45.644;13.782;2023-04-30T02:57:37;100938.50;;;15.47;64.20
79150;BME280;68563;45.644;13.782;2023-04-30T03:00:03;100937.59;;;15.48;63.79
79150;BME280;68563;45.644;13.782;2023-04-30T03:02:29;100939.50;;;15.42;63.99
79150;BME280;68563;45.644;13.782;2023-04-30T03:04:54;100939.38;;;15.46;63.75
79150;BME280;68563;45.644;13.782;2023-04-30T03:07:19;100932.44;;;15.45;63.64
79150;BME280;68563;45.644;13.782;2023-04-30T03:09:45;100932.38;;;15.48;63.53
79150;BME280;68563;45.644;13.782;2023-04-30T03:12:10;100936.66;;;15.51;63.59
79150;BME280;68563;45.644;13.782;2023-04-30T03:14:36;100931.44;;;15.51;63.49
79150;BME280;68563;45.644;13.782;2023-04-30T03:17:01;100932.31;;;15.50;63.42
79150;BME280;68563;45.644;13.782;2023-04-30T03:19:27;100936.56;;;15.54;62.90
79150;BME280;68563;45.644;13.782;2023-04-30T03:21:53;100937.47;;;15.52;63.51
79150;BME280;68563;45.644;13.782;2023-04-30T03:24:19;100936.69;;;15.50;62.73
79150;BME280;68563;45.644;13.782;2023-04-30T03:26:45;100934.09;;;15.48;62.98
79150;BME280;68563;45.644;13.782;2023-04-30T03:29:10;100940.28;;;15.45;62.86
79150;BME280;68563;45.644;13.782;2023-04-30T03:31:36;100940.28;;;15.45;62.72
79150;BME280;68563;45.644;13.782;2023-04-30T03:34:01;100942.88;;;15.45;62.46
79150;BME280;68563;45.644;13.782;2023-04-30T03:36:26;100936.88;;;15.43;62.51
79150;BME280;68563;45.644;13.782;2023-04-30T03:38:52;100941.22;;;15.43;62.04
79150;BME280;68563;45.644;13.782;2023-04-30T03:41:18;100939.50;;;15.42;62.18
79150;BME280;68563;45.644;13.782;2023-04-30T03:43:43;100934.41;;;15.39;62.32
79150;BME280;68563;45.644;13.782;2023-04-30T03:46:09;100940.56;;;15.36;62.52
79150;BME280;68563;45.644;13.782;2023-04-30T03:48:34;100937.97;;;15.35;62.64
79150;BME280;68563;45.644;13.782;2023-04-30T03:51:00;100944.06;;;15.35;62.40
79150;BME280;68563;45.644;13.782;2023-04-30T03:53:25;100938.03;;;15.33;62.66
79150;BME280;68563;45.644;13.782;2023-04-30T03:55:51;100943.38;;;15.28;63.04
79150;BME280;68563;45.644;13.782;2023-04-30T03:58:17;100943.50;;;15.24;63.09
79150;BME280;68563;45.644;13.782;2023-04-30T04:00:42;100935.66;;;15.24;63.20
79150;BME280;68563;45.644;13.782;2023-04-30T04:03:10;100937.50;;;15.20;63.18
79150;BME280;68563;45.644;13.782;2023-04-30T04:05:35;100944.50;;;15.20;63.60
79150;BME280;68563;45.644;13.782;2023-04-30T04:08:01;100936.00;;;15.11;63.51
79150;BME280;68563;45.644;13.782;2023-04-30T04:10:26;100938.56;;;15.14;63.57
79150;BME280;68563;45.644;13.782;2023-04-30T04:12:52;100942.78;;;15.19;63.43
79150;BME280;68563;45.644;13.782;2023-04-30T04:15:17;100939.28;;;15.20;63.24
79150;BME280;68563;45.644;13.782;2023-04-30T04:17:43;100944.50;;;15.20;63.45
79150;BME280;68563;45.644;13.782;2023-04-30T04:20:08;100943.66;;;15.19;63.25
79150;BME280;68563;45.644;13.782;2023-04-30T04:22:34;100945.50;;;15.15;63.31
79150;BME280;68563;45.644;13.782;2023-04-30T04:25:00;100949.72;;;15.20;63.24
79150;BME280;68563;45.644;13.782;2023-04-30T04:27:25;100953.31;;;15.15;63.37
79150;BME280;68563;45.644;13.782;2023-04-30T04:29:51;100956.03;;;15.11;63.62
79150;BME280;68563;45.644;13.782;2023-04-30T04:32:17;100963.03;;;15.09;63.79
79150;BME280;68563;45.644;13.782;2023-04-30T04:34:42;100952.56;;;15.10;63.43
79150;BME280;68563;45.644;13.782;2023-04-30T04:37:07;100956.41;;;15.28;62.96
79150;BME280;68563;45.644;13.782;2023-04-30T04:39:33;100957.75;;;15.43;62.89
79150;BME280;68563;45.644;13.782;2023-04-30T04:42:00;100961.94;;;15.49;62.20
79150;BME280;68563;45.644;13.782;2023-04-30T04:44:26;100960.22;;;15.48;61.95
79150;BME280;68563;45.644;13.782;2023-04-30T04:46:52;100954.06;;;15.51;62.27
79150;BME280;68563;45.644;13.782;2023-04-30T04:49:18;100951.94;;;15.63;61.95
79150;BME280;68563;45.644;13.782;2023-04-30T04:51:43;100948.06;;;15.77;62.37
79150;BME280;68563;45.644;13.782;2023-04-30T04:54:09;100945.28;;;15.85;61.65
79150;BME280;68563;45.644;13.782;2023-04-30T04:56:34;100946.59;;;15.98;60.35
79150;BME280;68563;45.644;13.782;2023-04-30T04:59:00;100946.06;;;16.15;58.92
79150;BME280;68563;45.644;13.782;2023-04-30T05:01:25;100949.72;;;16.36;58.15
79150;BME280;68563;45.644;13.782;2023-04-30T05:03:51;100942.22;;;16.54;56.87
79150;BME280;68563;45.644;13.782;2023-04-30T05:06:17;100942.41;;;16.73;56.71
79150;BME280;68563;45.644;13.782;2023-04-30T05:08:43;100942.69;;;16.90;55.96
79150;BME280;68563;45.644;13.782;2023-04-30T05:11:08;100935.09;;;17.10;55.62
79150;BME280;68563;45.644;13.782;2023-04-30T05:13:34;100948.53;;;17.24;55.34
79150;BME280;68563;45.644;13.782;2023-04-30T05:16:00;100941.19;;;17.34;54.95
79150;BME280;68563;45.644;13.782;2023-04-30T05:18:25;100942.28;;;17.52;54.82
79150;BME280;68563;45.644;13.782;2023-04-30T05:20:50;100941.66;;;17.67;54.45
79150;BME280;68563;45.644;13.782;2023-04-30T05:23:16;100953.75;;;17.72;55.31
79150;BME280;68563;45.644;13.782;2023-04-30T05:25:41;100952.59;;;17.79;55.44
79150;BME280;68563;45.644;13.782;2023-04-30T05:28:07;100959.97;;;17.91;54.77
79150;BME280;68563;45.644;13.782;2023-04-30T05:30:32;100959.88;;;17.94;54.40
79150;BME280;68563;45.644;13.782;2023-04-30T05:32:58;100954.34;;;18.02;54.35
79150;BME280;68563;45.644;13.782;2023-04-30T05:35:23;100951.91;;;17.97;54.47
79150;BME280;68563;45.644;13.782;2023-04-30T05:37:49;100947.34;;;18.02;54.33
79150;BME280;68563;45.644;13.782;2023-04-30T05:40:14;100947.22;;;18.06;54.03
79150;BME280;68563;45.644;13.782;2023-04-30T05:42:41;100962.22;;;18.24;53.54
79150;BME280;68563;45.644;13.782;2023-04-30T05:45:08;100951.47;;;18.30;53.47
79150;BME280;68563;45.644;13.782;2023-04-30T05:47:34;100963.97;;;18.46;52.67
79150;BME280;68563;45.644;13.782;2023-04-30T05:50:00;100952.03;;;18.59;51.73
79150;BME280;68563;45.644;13.782;2023-04-30T05:52:25;100949.84;;;18.71;51.23
79150;BME280;68563;45.644;13.782;2023-04-30T05:54:50;100960.56;;;18.85;50.48
79150;BME280;68563;45.644;13.782;2023-04-30T05:57:16;100962.84;;;18.94;50.03
79150;BME280;68563;45.644;13.782;2023-04-30T05:59:41;100952.22;;;18.97;49.86
79150;BME280;68563;45.644;13.782;2023-04-30T06:02:07;100952.84;;;19.03;50.35
79150;BME280;68563;45.644;13.782;2023-04-30T06:04:32;100960.47;;;19.09;49.88
79150;BME280;68563;45.644;13.782;2023-04-30T06:06:57;100950.59;;;19.14;49.61
79150;BME280;68563;45.644;13.782;2023-04-30T06:09:23;100948.56;;;19.21;49.33
79150;BME280;68563;45.644;13.782;2023-04-30T06:11:48;100956.81;;;19.32;49.10
79150;BME280;68563;45.644;13.782;2023-04-30T06:14:17;100950.28;;;19.41;48.86
79150;BME280;68563;45.644;13.782;2023-04-30T06:16:44;100955.47;;;19.42;48.12
79150;BME280;68563;45.644;13.782;2023-04-30T06:19:10;100958.75;;;19.48;48.42
79150;BME280;68563;45.644;13.782;2023-04-30T06:21:35;100949.75;;;19.53;47.77
79150;BME280;68563;45.644;13.782;2023-04-30T06:24:01;100957.97;;;19.65;47.39
79150;BME280;68563;45.644;13.782;2023-04-30T06:26:27;100944.91;;;19.63;47.45
79150;BME280;68563;45.644;13.782;2023-04-30T06:28:52;100949.72;;;19.72;47.23
79150;BME280;68563;45.644;13.782;2023-04-30T06:31:18;100952.75;;;19.84;47.06
79150;BME280;68563;45.644;13.782;2023-04-30T06:33:43;100949.72;;;19.91;46.88
79150;BME280;68563;45.644;13.782;2023-04-30T06:36:08;100951.06;;;20.00;46.53
79150;BME280;68563;45.644;13.782;2023-04-30T06:38:34;100952.41;;;20.09;46.14
79150;BME280;68563;45.644;13.782;2023-04-30T06:40:59;100953.34;;;20.08;46.35
79150;BME280;68563;45.644;13.782;2023-04-30T06:43:25;100952.16;;;19.96;46.19
79150;BME280;68563;45.644;13.782;2023-04-30T06:45:50;100954.47;;;19.83;46.68
79150;BME280;68563;45.644;13.782;2023-04-30T06:48:15;100959.31;;;19.73;46.90
79150;BME280;68563;45.644;13.782;2023-04-30T06:50:41;100963.44;;;19.60;46.66
79150;BME280;68563;45.644;13.782;2023-04-30T06:53:13;100974.56;;;19.46;47.59
79150;BME280;68563;45.644;13.782;2023-04-30T06:55:39;100953.13;;;19.36;47.60
79150;BME280;68563;45.644;13.782;2023-04-30T06:58:05;100963.75;;;19.33;47.87
79150;BME280;68563;45.644;13.782;2023-04-30T07:00:31;100955.75;;;19.36;47.82
79150;BME280;68563;45.644;13.782;2023-04-30T07:02:56;100961.50;;;19.44;47.38
79150;BME280;68563;45.644;13.782;2023-04-30T07:05:25;100979.41;;;19.55;47.44
79150;BME280;68563;45.644;13.782;2023-04-30T07:07:50;100962.50;;;19.61;47.39
79150;BME280;68563;45.644;13.782;2023-04-30T07:10:16;100968.75;;;19.58;47.08
79150;BME280;68563;45.644;13.782;2023-04-30T07:12:42;100979.13;;;19.42;47.61
79150;BME280;68563;45.644;13.782;2023-04-30T07:15:08;100969.38;;;19.44;47.55
79150;BME280;68563;45.644;13.782;2023-04-30T07:17:33;100958.47;;;19.54;47.42
79150;BME280;68563;45.644;13.782;2023-04-30T07:19:59;100968.69;;;19.60;47.21
79150;BME280;68563;45.644;13.782;2023-04-30T07:22:24;100972.31;;;19.76;47.10
79150;BME280;68563;45.644;13.782;2023-04-30T07:24:50;100962.34;;;19.83;46.50
79150;BME280;68563;45.644;13.782;2023-04-30T07:27:15;100961.31;;;19.87;46.50
79150;BME280;68563;45.644;13.782;2023-04-30T07:29:40;100968.06;;;19.93;46.51
79150;BME280;68563;45.644;13.782;2023-04-30T07:32:06;100964.88;;;19.86;46.80
79150;BME280;68563;45.644;13.782;2023-04-30T07:34:31;100952.00;;;19.80;46.96
79150;BME280;68563;45.644;13.782;2023-04-30T07:36:57;100957.38;;;19.77;46.81
79150;BME280;68563;45.644;13.782;2023-04-30T07:39:23;100976.94;;;19.71;46.73
79150;BME280;68563;45.644;13.782;2023-04-30T07:41:48;100971.03;;;19.66;46.43
79150;BME280;68563;45.644;13.782;2023-04-30T07:44:13;100966.06;;;19.79;46.09
79150;BME280;68563;45.644;13.782;2023-04-30T07:46:39;100964.22;;;19.81;46.24
79150;BME280;68563;45.644;13.782;2023-04-30T07:49:04;100989.44;;;19.85;45.70
79150;BME280;68563;45.644;13.782;2023-04-30T07:51:30;100968.75;;;19.77;45.30
79150;BME280;68563;45.644;13.782;2023-04-30T07:53:57;100979.78;;;19.86;44.81
79150;BME280;68563;45.644;13.782;2023-04-30T07:56:22;100958.53;;;19.90;44.82
79150;BME280;68563;45.644;13.782;2023-04-30T07:58:47;100965.88;;;20.20;43.92
79150;BME280;68563;45.644;13.782;2023-04-30T08:01:14;100968.44;;;20.22;44.19
79150;BME280;68563;45.644;13.782;2023-04-30T08:03:39;100967.28;;;20.28;43.50
79150;BME280;68563;45.644;13.782;2023-04-30T08:06:04;100950.75;;;20.43;42.95
79150;BME280;68563;45.644;13.782;2023-04-30T08:08:31;100955.25;;;20.59;42.37
79150;BME280;68563;45.644;13.782;2023-04-30T08:10:56;100949.22;;;20.56;42.65
79150;BME280;68563;45.644;13.782;2023-04-30T08:13:21;100946.09;;;20.66;42.25
79150;BME280;68563;45.644;13.782;2023-04-30T08:15:47;100971.25;;;20.71;41.93
79150;BME280;68563;45.644;13.782;2023-04-30T08:18:12;100955.47;;;20.71;42.09
79150;BME280;68563;45.644;13.782;2023-04-30T08:20:38;100939.56;;;20.75;42.60
79150;BME280;68563;45.644;13.782;2023-04-30T08:23:03;100954.03;;;20.83;42.27
79150;BME280;68563;45.644;13.782;2023-04-30T08:25:29;100956.75;;;20.82;42.57
79150;BME280;68563;45.644;13.782;2023-04-30T08:27:55;100956.19;;;20.75;42.35
79150;BME280;68563;45.644;13.782;2023-04-30T08:30:21;100966.22;;;20.67;42.17
79150;BME280;68563;45.644;13.782;2023-04-30T08:32:47;100951.63;;;20.61;42.33
79150;BME280;68563;45.644;13.782;2023-04-30T08:35:13;100954.78;;;20.68;42.51
79150;BME280;68563;45.644;13.782;2023-04-30T08:37:41;100960.44;;;20.78;42.19
79150;BME280;68563;45.644;13.782;2023-04-30T08:40:06;100966.34;;;20.83;42.31
79150;BME280;68563;45.644;13.782;2023-04-30T08:42:36;100965.25;;;20.87;41.89
79150;BME280;68563;45.644;13.782;2023-04-30T08:45:02;100970.66;;;20.84;42.11
79150;BME280;68563;45.644;13.782;2023-04-30T08:47:28;100955.28;;;20.76;42.53
79150;BME280;68563;45.644;13.782;2023-04-30T08:49:54;100968.56;;;20.73;42.04
79150;BME280;68563;45.644;13.782;2023-04-30T08:52:21;100965.38;;;20.66;42.36
79150;BME280;68563;45.644;13.782;2023-04-30T08:54:47;100972.50;;;20.64;41.31
79150;BME280;68563;45.644;13.782;2023-04-30T08:57:12;100979.88;;;20.58;41.52
79150;BME280;68563;45.644;13.782;2023-04-30T08:59:38;100980.00;;;20.54;41.67
79150;BME280;68563;45.644;13.782;2023-04-30T09:02:03;100984.19;;;20.59;41.33
79150;BME280;68563;45.644;13.782;2023-04-30T09:04:29;100987.50;;;20.62;40.98
79150;BME280;68563;45.644;13.782;2023-04-30T09:06:55;100974.50;;;20.59;41.30
79150;BME280;68563;45.644;13.782;2023-04-30T09:09:27;100955.47;;;20.71;39.98
79150;BME280;68563;45.644;13.782;2023-04-30T09:11:52;100980.91;;;20.72;40.17
79150;BME280;68563;45.644;13.782;2023-04-30T09:14:23;101000.28;;;20.70;40.04
79150;BME280;68563;45.644;13.782;2023-04-30T09:16:50;100977.41;;;20.72;39.06
79150;BME280;68563;45.644;13.782;2023-04-30T09:19:27;100985.44;;;20.69;39.48
79150;BME280;68563;45.644;13.782;2023-04-30T09:21:53;100988.34;;;20.82;38.86
79150;BME280;68563;45.644;13.782;2023-04-30T09:24:19;101010.63;;;20.75;38.77
79150;BME280;68563;45.644;13.782;2023-04-30T09:26:45;100977.53;;;20.69;38.92
79150;BME280;68563;45.644;13.782;2023-04-30T09:29:11;100976.88;;;20.83;38.40
79150;BME280;68563;45.644;13.782;2023-04-30T09:31:39;100980.91;;;20.72;38.56
79150;BME280;68563;45.644;13.782;2023-04-30T09:34:05;100981.69;;;20.75;39.27
79150;BME280;68563;45.644;13.782;2023-04-30T09:36:31;101004.69;;;20.69;38.75
79150;BME280;68563;45.644;13.782;2023-04-30T09:39:13;100986.44;;;20.66;38.93
79150;BME280;68563;45.644;13.782;2023-04-30T09:41:41;100999.31;;;20.72;37.88
79150;BME280;68563;45.644;13.782;2023-04-30T09:44:07;100992.19;;;20.75;37.66
79150;BME280;68563;45.644;13.782;2023-04-30T09:46:34;100984.84;;;20.81;37.62
79150;BME280;68563;45.644;13.782;2023-04-30T09:49:04;100986.75;;;20.78;37.57
79150;BME280;68563;45.644;13.782;2023-04-30T09:51:30;100979.56;;;20.81;36.78
79150;BME280;68563;45.644;13.782;2023-04-30T09:53:56;100981.44;;;20.79;36.85
79150;BME280;68563;45.644;13.782;2023-04-30T09:56:23;100983.13;;;20.80;37.36
79150;BME280;68563;45.644;13.782;2023-04-30T09:58:50;100966.41;;;20.81;37.79
79150;BME280;68563;45.644;13.782;2023-04-30T10:01:18;100973.97;;;20.87;37.67
79150;BME280;68563;45.644;13.782;2023-04-30T10:03:44;100965.94;;;20.91;38.20
79150;BME280;68563;45.644;13.782;2023-04-30T10:06:12;100961.88;;;21.01;36.84
79150;BME280;68563;45.644;13.782;2023-04-30T10:08:42;100951.44;;;20.99;36.89
79150;BME280;68563;45.644;13.782;2023-04-30T10:11:12;100958.31;;;21.02;37.00
79150;BME280;68563;45.644;13.782;2023-04-30T10:13:50;100956.47;;;21.04;36.83
79150;BME280;68563;45.644;13.782;2023-04-30T10:18:49;100950.56;;;21.16;36.37
79150;BME280;68563;45.644;13.782;2023-04-30T10:21:17;100945.88;;;21.22;36.30
79150;BME280;68563;45.644;13.782;2023-04-30T10:23:45;100955.50;;;21.23;36.85
79150;BME280;68563;45.644;13.782;2023-04-30T10:26:11;100952.25;;;21.17;36.78
79150;BME280;68563;45.644;13.782;2023-04-30T10:28:37;100939.69;;;21.23;36.45
79150;BME280;68563;45.644;13.782;2023-04-30T10:31:06;100943.34;;;21.20;36.81
79150;BME280;68563;45.644;13.782;2023-04-30T10:33:41;100933.72;;;21.19;36.46
79150;BME280;68563;45.644;13.782;2023-04-30T10:39:03;100929.47;;;21.16;36.82
79150;BME280;68563;45.644;13.782;2023-04-30T10:41:30;100940.78;;;21.18;36.47
79150;BME280;68563;45.644;13.782;2023-04-30T10:43:56;100925.16;;;21.15;36.78
79150;BME280;68563;45.644;13.782;2023-04-30T10:46:25;100935.78;;;21.14;36.01
79150;BME280;68563;45.644;13.782;2023-04-30T10:48:52;100931.72;;;21.24;35.46
79150;BME280;68563;45.644;13.782;2023-04-30T10:51:19;100938.66;;;21.25;36.16
79150;BME280;68563;45.644;13.782;2023-04-30T10:53:48;100928.91;;;21.27;35.76
79150;BME280;68563;45.644;13.782;2023-04-30T10:56:28;100932.22;;;21.31;35.32
79150;BME280;68563;45.644;13.782;2023-04-30T10:58:58;100911.00;;;21.34;34.97
79150;BME280;68563;45.644;13.782;2023-04-30T11:01:24;100920.44;;;21.38;35.17
79150;BME280;68563;45.644;13.782;2023-04-30T11:04:08;100914.81;;;21.44;37.10
79150;BME280;68563;45.644;13.782;2023-04-30T11:09:33;100927.53;;;21.70;34.98
79150;BME280;68563;45.644;13.782;2023-04-30T11:12:13;100919.03;;;21.64;35.27
79150;BME280;68563;45.644;13.782;2023-04-30T11:14:41;100912.84;;;21.65;35.13
79150;BME280;68563;45.644;13.782;2023-04-30T11:17:07;100926.06;;;21.64;35.62
79150;BME280;68563;45.644;13.782;2023-04-30T11:19:33;100919.28;;;21.60;34.79
79150;BME280;68563;45.644;13.782;2023-04-30T11:27:29;100920.44;;;21.54;34.47
79150;BME280;68563;45.644;13.782;2023-04-30T11:29:56;100944.16;;;21.54;34.54
79150;BME280;68563;45.644;13.782;2023-04-30T11:32:23;100904.72;;;21.52;34.03
79150;BME280;68563;45.644;13.782;2023-04-30T11:34:49;100930.91;;;21.56;34.31
79150;BME280;68563;45.644;13.782;2023-04-30T11:37:23;100915.88;;;21.58;34.26
79150;BME280;68563;45.644;13.782;2023-04-30T11:39:49;100901.63;;;21.62;33.97
79150;BME280;68563;45.644;13.782;2023-04-30T11:42:18;100919.19;;;21.61;34.47
79150;BME280;68563;45.644;13.782;2023-04-30T11:44:44;100916.75;;;21.58;34.64
79150;BME280;68563;45.644;13.782;2023-04-30T11:47:11;100922.06;;;21.57;34.67
79150;BME280;68563;45.644;13.782;2023-04-30T11:49:37;100909.88;;;21.54;34.27
79150;BME280;68563;45.644;13.782;2023-04-30T11:52:02;100911.78;;;21.52;34.56
79150;BME280;68563;45.644;13.782;2023-04-30T11:54:32;100910.81;;;21.53;33.98
79150;BME280;68563;45.644;13.782;2023-04-30T11:56:57;100909.69;;;21.59;34.04
79150;BME280;68563;45.644;13.782;2023-04-30T11:59:28;100908.19;;;21.53;34.35
79150;BME280;68563;45.644;13.782;2023-04-30T12:01:54;100903.00;;;21.51;34.10
79150;BME280;68563;45.644;13.782;2023-04-30T12:04:20;100914.00;;;21.60;34.35
79150;BME280;68563;45.644;13.782;2023-04-30T12:06:46;100907.97;;;21.58;33.91
79150;BME280;68563;45.644;13.782;2023-04-30T12:09:11;100902.69;;;21.58;33.05
79150;BME280;68563;45.644;13.782;2023-04-30T12:11:37;100919.38;;;21.58;32.94
79150;BME280;68563;45.644;13.782;2023-04-30T12:14:07;100908.59;;;21.63;32.21
79150;BME280;68563;45.644;13.782;2023-04-30T12:16:44;100908.25;;;21.69;32.29
79150;BME280;68563;45.644;13.782;2023-04-30T12:19:12;100913.75;;;21.64;33.27
79150;BME280;68563;45.644;13.782;2023-04-30T12:21:44;100906.88;;;21.62;33.62
79150;BME280;68563;45.644;13.782;2023-04-30T12:24:17;100901.63;;;21.62;32.49
79150;BME280;68563;45.644;13.782;2023-04-30T12:26:43;100902.53;;;21.61;33.75
79150;BME280;68563;45.644;13.782;2023-04-30T12:29:16;100897.44;;;21.58;33.46
79150;BME280;68563;45.644;13.782;2023-04-30T12:31:42;100909.16;;;21.68;32.33
79150;BME280;68563;45.644;13.782;2023-04-30T12:34:12;100913.66;;;21.66;32.91
79150;BME280;68563;45.644;13.782;2023-04-30T12:36:39;100895.22;;;21.66;32.10
79150;BME280;68563;45.644;13.782;2023-04-30T12:41:38;100906.00;;;21.61;32.73
79150;BME280;68563;45.644;13.782;2023-04-30T12:44:20;100907.81;;;21.61;33.31
79150;BME280;68563;45.644;13.782;2023-04-30T12:46:51;100902.69;;;21.58;32.44
79150;BME280;68563;45.644;13.782;2023-04-30T12:49:32;100884.19;;;21.59;32.54
79150;BME280;68563;45.644;13.782;2023-04-30T12:54:27;100876.50;;;21.55;32.76
79150;BME280;68563;45.644;13.782;2023-04-30T12:57:03;100877.28;;;21.57;32.72
79150;BME280;68563;45.644;13.782;2023-04-30T12:59:30;100880.84;;;21.56;32.83
79150;BME280;68563;45.644;13.782;2023-04-30T13:02:11;100879.66;;;21.61;32.66
79150;BME280;68563;45.644;13.782;2023-04-30T13:04:38;100877.13;;;21.60;32.93
79150;BME280;68563;45.644;13.782;2023-04-30T13:07:04;100879.59;;;21.63;32.57
79150;BME280;68563;45.644;13.782;2023-04-30T13:09:32;100868.88;;;21.66;32.18
79150;BME280;68563;45.644;13.782;2023-04-30T13:11:57;100872.63;;;21.62;32.17
79150;BME280;68563;45.644;13.782;2023-04-30T13:14:23;100871.94;;;21.58;32.74
79150;BME280;68563;45.644;13.782;2023-04-30T13:16:48;100869.53;;;21.54;32.34
79150;BME280;68563;45.644;13.782;2023-04-30T13:19:14;100865.97;;;21.55;32.35